sensor_id;sensor_type;location;lat;lon;timestamp;temperature;humidity
11497;DHT22;5805;51.542;7.230;2022-09-09T00:00:08;19.00;99.90
11497;DHT22;5805;51.542;7.230;2022-09-09T00:02:36;19.00;99.90
11497;DHT22;5805;51.542;7.230;2022-09-09T00:05:17;19.00;99.90
11497;DHT22;5805;51.542;7.230;2022-09-09T00:07:46;18.90;99.90
11497;DHT22;5805;51.542;7.230;2022-09-09T00:10:18;18.90;99.90
11497;DHT22;5805;51.542;7.230;2022-09-09T00:12:54;18.90;99.90
11497;DHT22;5805;51.542;7.230;2022-09-09T00:15:23;18.80;99.90
11497;DHT22;5805;51.542;7.230;2022-09-09T00:17:55;18.80;99.90
11497;DHT22;5805;51.542;7.230;2022-09-09T00:20:28;18.80;99.90
11497;DHT22;5805;51.542;7.230;2022-09-09T00:22:59;18.80;99.90
11497;DHT22;5805;51.542;7.230;2022-09-09T00:25:29;18.80;99.90
11497;DHT22;5805;51.542;7.230;2022-09-09T00:27:57;18.80;99.90
11497;DHT22;5805;51.542;7.230;2022-09-09T00:30:24;18.80;99.90
11497;DHT22;5805;51.542;7.230;2022-09-09T00:32:53;18.80;99.90
11497;DHT22;5805;51.542;7.230;2022-09-09T00:35:24;18.80;99.90
11497;DHT22;5805;51.542;7.230;2022-09-09T00:37:51;18.80;99.90
11497;DHT22;5805;51.542;7.230;2022-09-09T00:40:23;18.90;99.90
11497;DHT22;5805;51.542;7.230;2022-09-09T00:42:54;18.90;99.90
11497;DHT22;5805;51.542;7.230;2022-09-09T00:45:39;18.90;99.90
11497;DHT22;5805;51.542;7.230;2022-09-09T00:48:11;18.80;99.90
11497;DHT22;5805;51.542;7.230;2022-09-09T00:50:46;18.80;99.90
11497;DHT22;5805;51.542;7.230;2022-09-09T00:53:26;18.80;99.90
11497;DHT22;5805;51.542;7.230;2022-09-09T00:56:00;18.90;99.90
11497;DHT22;5805;51.542;7.230;2022-09-09T00:58:31;18.90;99.90
11497;DHT22;5805;51.542;7.230;2022-09-09T01:01:02;18.80;99.90
11497;DHT22;5805;51.542;7.230;2022-09-09T01:03:34;18.80;99.90
11497;DHT22;5805;51.542;7.230;2022-09-09T01:06:14;18.80;99.90
11497;DHT22;5805;51.542;7.230;2022-09-09T01:09:10;18.70;99.90
11497;DHT22;5805;51.542;7.230;2022-09-09T01:11:49;18.60;99.90
11497;DHT22;5805;51.542;7.230;2022-09-09T01:14:24;18.80;99.90
11497;DHT22;5805;51.542;7.230;2022-09-09T01:16:57;18.60;99.90
11497;DHT22;5805;51.542;7.230;2022-09-09T01:19:49;18.60;99.90
11497;DHT22;5805;51.542;7.230;2022-09-09T01:22:28;18.60;99.90
11497;DHT22;5805;51.542;7.230;2022-09-09T01:25:25;18.60;99.90
11497;DHT22;5805;51.542;7.230;2022-09-09T01:27:56;18.60;99.90
11497;DHT22;5805;51.542;7.230;2022-09-09T01:30:23;18.60;99.90
11497;DHT22;5805;51.542;7.230;2022-09-09T01:32:50;18.60;99.90
11497;DHT22;5805;51.542;7.230;2022-09-09T01:35:31;18.60;99.90
11497;DHT22;5805;51.542;7.230;2022-09-09T01:37:58;19.40;99.90
11497;DHT22;5805;51.542;7.230;2022-09-09T01:40:24;18.50;99.90
11497;DHT22;5805;51.542;7.230;2022-09-09T01:42:50;18.50;99.90
11497;DHT22;5805;51.542;7.230;2022-09-09T01:45:18;18.70;99.90
11497;DHT22;5805;51.542;7.230;2022-09-09T01:47:44;18.40;99.90
11497;DHT22;5805;51.542;7.230;2022-09-09T01:50:12;18.40;99.90
11497;DHT22;5805;51.542;7.230;2022-09-09T01:52:39;18.30;99.90
11497;DHT22;5805;51.542;7.230;2022-09-09T01:55:07;18.30;99.90
11497;DHT22;5805;51.542;7.230;2022-09-09T01:57:39;18.30;99.90
11497;DHT22;5805;51.542;7.230;2022-09-09T02:00:09;18.30;99.90
11497;DHT22;5805;51.542;7.230;2022-09-09T02:02:42;18.40;99.90
11497;DHT22;5805;51.542;7.230;2022-09-09T02:05:17;20.40;99.90
11497;DHT22;5805;51.542;7.230;2022-09-09T02:07:49;18.80;99.90
11497;DHT22;5805;51.542;7.230;2022-09-09T02:10:19;19.20;99.90
11497;DHT22;5805;51.542;7.230;2022-09-09T02:12:48;18.60;99.90
11497;DHT22;5805;51.542;7.230;2022-09-09T02:15:20;18.60;99.90
11497;DHT22;5805;51.542;7.230;2022-09-09T02:17:49;18.60;99.90
11497;DHT22;5805;51.542;7.230;2022-09-09T02:20:18;18.70;99.90
11497;DHT22;5805;51.542;7.230;2022-09-09T02:22:47;18.60;99.90
11497;DHT22;5805;51.542;7.230;2022-09-09T02:25:16;18.60;99.90
11497;DHT22;5805;51.542;7.230;2022-09-09T02:27:44;18.50;99.90
11497;DHT22;5805;51.542;7.230;2022-09-09T02:30:11;18.50;99.90
11497;DHT22;5805;51.542;7.230;2022-09-09T02:32:38;18.50;99.90
11497;DHT22;5805;51.542;7.230;2022-09-09T02:35:09;19.30;99.90
11497;DHT22;5805;51.542;7.230;2022-09-09T02:37:38;18.50;99.90
11497;DHT22;5805;51.542;7.230;2022-09-09T02:40:04;19.00;99.90
11497;DHT22;5805;51.542;7.230;2022-09-09T02:42:31;18.40;99.90
11497;DHT22;5805;51.542;7.230;2022-09-09T02:44:57;18.40;99.90
11497;DHT22;5805;51.542;7.230;2022-09-09T02:47:28;19.00;99.90
11497;DHT22;5805;51.542;7.230;2022-09-09T02:50:06;18.40;99.90
11497;DHT22;5805;51.542;7.230;2022-09-09T02:52:40;18.50;99.90
11497;DHT22;5805;51.542;7.230;2022-09-09T02:55:20;18.50;99.90
11497;DHT22;5805;51.542;7.230;2022-09-09T02:57:47;18.60;99.90
11497;DHT22;5805;51.542;7.230;2022-09-09T03:00:14;18.60;99.90
11497;DHT22;5805;51.542;7.230;2022-09-09T03:02:39;18.60;99.90
11497;DHT22;5805;51.542;7.230;2022-09-09T03:05:07;18.50;99.90
11497;DHT22;5805;51.542;7.230;2022-09-09T03:07:33;18.60;99.90
11497;DHT22;5805;51.542;7.230;2022-09-09T03:09:58;18.60;99.90
11497;DHT22;5805;51.542;7.230;2022-09-09T03:12:24;18.60;99.90
11497;DHT22;5805;51.542;7.230;2022-09-09T03:14:50;18.60;99.90
11497;DHT22;5805;51.542;7.230;2022-09-09T03:17:15;19.90;99.90
11497;DHT22;5805;51.542;7.230;2022-09-09T03:19:41;18.60;99.90
11497;DHT22;5805;51.542;7.230;2022-09-09T03:22:09;18.60;99.90
11497;DHT22;5805;51.542;7.230;2022-09-09T03:24:35;18.60;99.90
11497;DHT22;5805;51.542;7.230;2022-09-09T03:27:01;18.70;99.90
11497;DHT22;5805;51.542;7.230;2022-09-09T03:29:26;18.60;99.90
11497;DHT22;5805;51.542;7.230;2022-09-09T03:31:52;18.60;99.90
11497;DHT22;5805;51.542;7.230;2022-09-09T03:34:18;18.60;99.90
11497;DHT22;5805;51.542;7.230;2022-09-09T03:36:43;18.60;99.90
11497;DHT22;5805;51.542;7.230;2022-09-09T03:39:11;18.60;99.90
11497;DHT22;5805;51.542;7.230;2022-09-09T03:41:36;18.60;99.90
11497;DHT22;5805;51.542;7.230;2022-09-09T03:44:02;18.60;99.90
11497;DHT22;5805;51.542;7.230;2022-09-09T03:46:28;18.60;99.90
11497;DHT22;5805;51.542;7.230;2022-09-09T03:48:54;18.60;99.90
11497;DHT22;5805;51.542;7.230;2022-09-09T03:51:20;18.50;99.90
11497;DHT22;5805;51.542;7.230;2022-09-09T03:53:46;19.40;99.90
11497;DHT22;5805;51.542;7.230;2022-09-09T03:56:13;18.40;99.90
11497;DHT22;5805;51.542;7.230;2022-09-09T03:58:38;18.40;99.90
11497;DHT22;5805;51.542;7.230;2022-09-09T04:01:06;18.40;99.90
11497;DHT22;5805;51.542;7.230;2022-09-09T04:03:32;20.00;99.90
11497;DHT22;5805;51.542;7.230;2022-09-09T04:05:59;18.30;99.90
11497;DHT22;5805;51.542;7.230;2022-09-09T04:08:25;18.30;99.90
11497;DHT22;5805;51.542;7.230;2022-09-09T04:10:52;18.30;99.90
11497;DHT22;5805;51.542;7.230;2022-09-09T04:13:19;18.20;99.90
11497;DHT22;5805;51.542;7.230;2022-09-09T04:15:50;18.20;99.90
11497;DHT22;5805;51.542;7.230;2022-09-09T04:18:16;19.30;99.90
11497;DHT22;5805;51.542;7.230;2022-09-09T04:20:42;19.00;99.90
11497;DHT22;5805;51.542;7.230;2022-09-09T04:23:07;18.30;99.90
11497;DHT22;5805;51.542;7.230;2022-09-09T04:25:33;18.30;99.90
11497;DHT22;5805;51.542;7.230;2022-09-09T04:27:59;20.10;99.90
11497;DHT22;5805;51.542;7.230;2022-09-09T04:30:26;18.40;99.90
11497;DHT22;5805;51.542;7.230;2022-09-09T04:32:51;18.40;99.90
11497;DHT22;5805;51.542;7.230;2022-09-09T04:35:17;18.50;99.90
11497;DHT22;5805;51.542;7.230;2022-09-09T04:37:42;18.40;99.90
11497;DHT22;5805;51.542;7.230;2022-09-09T04:40:09;18.40;99.90
11497;DHT22;5805;51.542;7.230;2022-09-09T04:42:35;18.40;99.90
11497;DHT22;5805;51.542;7.230;2022-09-09T04:45:00;19.50;99.90
11497;DHT22;5805;51.542;7.230;2022-09-09T04:47:27;19.70;99.90
11497;DHT22;5805;51.542;7.230;2022-09-09T04:49:53;18.30;99.90
11497;DHT22;5805;51.542;7.230;2022-09-09T04:52:19;18.30;99.90
11497;DHT22;5805;51.542;7.230;2022-09-09T04:54:44;18.30;99.90
11497;DHT22;5805;51.542;7.230;2022-09-09T04:57:10;18.30;99.90
11497;DHT22;5805;51.542;7.230;2022-09-09T04:59:36;18.60;99.90
11497;DHT22;5805;51.542;7.230;2022-09-09T05:02:02;18.20;99.90
11497;DHT22;5805;51.542;7.230;2022-09-09T05:04:29;18.20;99.90
11497;DHT22;5805;51.542;7.230;2022-09-09T05:06:55;18.20;99.90
11497;DHT22;5805;51.542;7.230;2022-09-09T05:09:21;18.30;99.90
11497;DHT22;5805;51.542;7.230;2022-09-09T05:11:46;18.40;99.90
11497;DHT22;5805;51.542;7.230;2022-09-09T05:14:12;18.40;99.90
11497;DHT22;5805;51.542;7.230;2022-09-09T05:16:38;18.40;99.90
11497;DHT22;5805;51.542;7.230;2022-09-09T05:19:03;18.50;99.90
11497;DHT22;5805;51.542;7.230;2022-09-09T05:21:30;19.70;99.90
11497;DHT22;5805;51.542;7.230;2022-09-09T05:23:56;18.60;99.90
11497;DHT22;5805;51.542;7.230;2022-09-09T05:26:23;18.60;99.90
11497;DHT22;5805;51.542;7.230;2022-09-09T05:28:48;18.70;99.90
11497;DHT22;5805;51.542;7.230;2022-09-09T05:31:16;18.70;99.90
11497;DHT22;5805;51.542;7.230;2022-09-09T05:33:44;20.20;99.90
11497;DHT22;5805;51.542;7.230;2022-09-09T05:36:11;18.80;99.90
11497;DHT22;5805;51.542;7.230;2022-09-09T05:38:39;18.80;99.90
11497;DHT22;5805;51.542;7.230;2022-09-09T05:41:05;19.00;99.90
11497;DHT22;5805;51.542;7.230;2022-09-09T05:43:31;18.90;99.90
11497;DHT22;5805;51.542;7.230;2022-09-09T05:46:00;18.90;99.90
11497;DHT22;5805;51.542;7.230;2022-09-09T05:48:28;18.90;99.90
11497;DHT22;5805;51.542;7.230;2022-09-09T05:50:54;18.90;99.90
11497;DHT22;5805;51.542;7.230;2022-09-09T05:53:19;18.90;99.90
11497;DHT22;5805;51.542;7.230;2022-09-09T05:55:46;18.90;99.90
11497;DHT22;5805;51.542;7.230;2022-09-09T05:58:12;19.00;99.90
11497;DHT22;5805;51.542;7.230;2022-09-09T06:00:38;19.00;99.90
11497;DHT22;5805;51.542;7.230;2022-09-09T06:03:04;19.10;99.90
11497;DHT22;5805;51.542;7.230;2022-09-09T06:05:29;19.20;99.90
11497;DHT22;5805;51.542;7.230;2022-09-09T06:07:55;19.20;99.90
11497;DHT22;5805;51.542;7.230;2022-09-09T06:10:21;19.20;99.90
11497;DHT22;5805;51.542;7.230;2022-09-09T06:12:48;19.30;99.90
11497;DHT22;5805;51.542;7.230;2022-09-09T06:15:14;19.30;99.90
11497;DHT22;5805;51.542;7.230;2022-09-09T06:17:40;19.30;99.90
11497;DHT22;5805;51.542;7.230;2022-09-09T06:20:06;19.30;99.90
11497;DHT22;5805;51.542;7.230;2022-09-09T06:22:32;19.40;99.90
11497;DHT22;5805;51.542;7.230;2022-09-09T06:24:58;19.50;99.90
11497;DHT22;5805;51.542;7.230;2022-09-09T06:27:23;19.50;99.90
11497;DHT22;5805;51.542;7.230;2022-09-09T06:29:50;19.60;99.90
11497;DHT22;5805;51.542;7.230;2022-09-09T06:32:16;19.60;99.90
11497;DHT22;5805;51.542;7.230;2022-09-09T06:34:42;19.60;99.90
11497;DHT22;5805;51.542;7.230;2022-09-09T06:37:07;19.60;99.90
11497;DHT22;5805;51.542;7.230;2022-09-09T06:39:33;19.70;99.90
11497;DHT22;5805;51.542;7.230;2022-09-09T06:41:59;19.80;99.90
11497;DHT22;5805;51.542;7.230;2022-09-09T06:44:24;19.80;99.90
11497;DHT22;5805;51.542;7.230;2022-09-09T06:46:51;19.80;99.90
11497;DHT22;5805;51.542;7.230;2022-09-09T06:49:17;19.80;99.90
11497;DHT22;5805;51.542;7.230;2022-09-09T06:51:43;19.90;99.90
11497;DHT22;5805;51.542;7.230;2022-09-09T06:54:09;19.90;99.90
11497;DHT22;5805;51.542;7.230;2022-09-09T06:56:36;20.00;99.90
11497;DHT22;5805;51.542;7.230;2022-09-09T06:59:04;20.10;99.90
11497;DHT22;5805;51.542;7.230;2022-09-09T07:01:31;20.20;99.90
11497;DHT22;5805;51.542;7.230;2022-09-09T07:03:59;20.50;99.90
11497;DHT22;5805;51.542;7.230;2022-09-09T07:06:27;20.50;99.90
11497;DHT22;5805;51.542;7.230;2022-09-09T07:08:54;20.70;99.90
11497;DHT22;5805;51.542;7.230;2022-09-09T07:11:23;20.90;99.90
11497;DHT22;5805;51.542;7.230;2022-09-09T07:13:50;21.00;99.90
11497;DHT22;5805;51.542;7.230;2022-09-09T07:16:17;21.10;99.90
11497;DHT22;5805;51.542;7.230;2022-09-09T07:18:43;21.20;99.90
11497;DHT22;5805;51.542;7.230;2022-09-09T07:21:12;21.30;99.90
11497;DHT22;5805;51.542;7.230;2022-09-09T07:23:38;21.50;99.90
11497;DHT22;5805;51.542;7.230;2022-09-09T07:26:08;21.60;99.90
11497;DHT22;5805;51.542;7.230;2022-09-09T07:28:33;21.70;99.90
11497;DHT22;5805;51.542;7.230;2022-09-09T07:31:00;21.80;99.90
11497;DHT22;5805;51.542;7.230;2022-09-09T07:33:26;21.90;99.90
11497;DHT22;5805;51.542;7.230;2022-09-09T07:35:53;22.10;99.90
11497;DHT22;5805;51.542;7.230;2022-09-09T07:38:20;22.20;99.90
11497;DHT22;5805;51.542;7.230;2022-09-09T07:40:46;22.30;99.90
11497;DHT22;5805;51.542;7.230;2022-09-09T07:43:11;22.50;99.90
11497;DHT22;5805;51.542;7.230;2022-09-09T07:45:37;22.50;99.90
11497;DHT22;5805;51.542;7.230;2022-09-09T07:48:04;22.50;99.90
11497;DHT22;5805;51.542;7.230;2022-09-09T07:50:30;22.50;99.90
11497;DHT22;5805;51.542;7.230;2022-09-09T07:52:56;22.40;99.90
11497;DHT22;5805;51.542;7.230;2022-09-09T07:55:23;22.20;99.90
11497;DHT22;5805;51.542;7.230;2022-09-09T07:57:49;21.90;99.90
11497;DHT22;5805;51.542;7.230;2022-09-09T08:00:15;21.70;99.90
11497;DHT22;5805;51.542;7.230;2022-09-09T08:02:40;21.60;99.90
11497;DHT22;5805;51.542;7.230;2022-09-09T08:05:07;21.60;99.90
11497;DHT22;5805;51.542;7.230;2022-09-09T08:07:33;21.50;99.90
11497;DHT22;5805;51.542;7.230;2022-09-09T08:09:58;21.50;99.90
11497;DHT22;5805;51.542;7.230;2022-09-09T08:12:25;21.50;99.90
11497;DHT22;5805;51.542;7.230;2022-09-09T08:14:51;21.70;99.90
11497;DHT22;5805;51.542;7.230;2022-09-09T08:17:17;22.00;99.90
11497;DHT22;5805;51.542;7.230;2022-09-09T08:19:42;22.30;99.90
11497;DHT22;5805;51.542;7.230;2022-09-09T08:22:08;22.30;99.90
11497;DHT22;5805;51.542;7.230;2022-09-09T08:24:34;22.40;99.90
11497;DHT22;5805;51.542;7.230;2022-09-09T08:26:59;22.50;99.90
11497;DHT22;5805;51.542;7.230;2022-09-09T08:29:26;22.60;99.90
11497;DHT22;5805;51.542;7.230;2022-09-09T08:31:53;22.70;99.90
11497;DHT22;5805;51.542;7.230;2022-09-09T08:34:20;22.70;99.90
11497;DHT22;5805;51.542;7.230;2022-09-09T08:36:48;22.70;99.90
11497;DHT22;5805;51.542;7.230;2022-09-09T08:39:15;22.90;99.90
11497;DHT22;5805;51.542;7.230;2022-09-09T08:42:03;23.00;99.90
11497;DHT22;5805;51.542;7.230;2022-09-09T08:44:57;23.10;99.90
11497;DHT22;5805;51.542;7.230;2022-09-09T08:47:31;23.10;99.90
11497;DHT22;5805;51.542;7.230;2022-09-09T08:50:16;23.00;99.90
11497;DHT22;5805;51.542;7.230;2022-09-09T08:52:51;22.90;99.90
11497;DHT22;5805;51.542;7.230;2022-09-09T08:55:24;22.90;99.90
11497;DHT22;5805;51.542;7.230;2022-09-09T08:57:54;22.80;99.90
11497;DHT22;5805;51.542;7.230;2022-09-09T09:00:22;23.00;99.90
11497;DHT22;5805;51.542;7.230;2022-09-09T09:03:01;23.00;99.90
11497;DHT22;5805;51.542;7.230;2022-09-09T09:05:35;23.20;99.90
11497;DHT22;5805;51.542;7.230;2022-09-09T09:08:11;23.40;97.60
11497;DHT22;5805;51.542;7.230;2022-09-09T09:10:46;23.60;97.10
11497;DHT22;5805;51.542;7.230;2022-09-09T09:13:15;23.90;96.00
11497;DHT22;5805;51.542;7.230;2022-09-09T09:15:44;23.90;95.40
11497;DHT22;5805;51.542;7.230;2022-09-09T09:18:13;23.90;95.40
11497;DHT22;5805;51.542;7.230;2022-09-09T09:20:42;24.00;95.20
11497;DHT22;5805;51.542;7.230;2022-09-09T09:23:18;24.10;95.90
11497;DHT22;5805;51.542;7.230;2022-09-09T09:25:46;24.30;94.70
11497;DHT22;5805;51.542;7.230;2022-09-09T09:28:15;24.40;93.80
11497;DHT22;5805;51.542;7.230;2022-09-09T09:30:44;24.40;94.20
11497;DHT22;5805;51.542;7.230;2022-09-09T09:33:18;24.50;94.30
11497;DHT22;5805;51.542;7.230;2022-09-09T09:35:46;24.60;92.30
11497;DHT22;5805;51.542;7.230;2022-09-09T09:38:17;24.50;90.70
11497;DHT22;5805;51.542;7.230;2022-09-09T09:40:49;24.20;91.40
11497;DHT22;5805;51.542;7.230;2022-09-09T09:43:19;24.10;91.90
11497;DHT22;5805;51.542;7.230;2022-09-09T09:45:46;24.10;92.40
11497;DHT22;5805;51.542;7.230;2022-09-09T09:48:13;24.10;92.30
11497;DHT22;5805;51.542;7.230;2022-09-09T09:50:47;24.10;92.50
11497;DHT22;5805;51.542;7.230;2022-09-09T09:53:20;24.10;92.20
11497;DHT22;5805;51.542;7.230;2022-09-09T09:55:52;24.20;92.50
11497;DHT22;5805;51.542;7.230;2022-09-09T09:58:19;24.20;91.90
11497;DHT22;5805;51.542;7.230;2022-09-09T10:00:49;24.20;91.00
11497;DHT22;5805;51.542;7.230;2022-09-09T10:03:26;24.20;90.90
11497;DHT22;5805;51.542;7.230;2022-09-09T10:05:53;24.20;90.50
11497;DHT22;5805;51.542;7.230;2022-09-09T10:08:19;24.20;90.90
11497;DHT22;5805;51.542;7.230;2022-09-09T10:11:04;24.30;91.20
11497;DHT22;5805;51.542;7.230;2022-09-09T10:13:41;24.30;89.20
11497;DHT22;5805;51.542;7.230;2022-09-09T10:16:25;24.30;88.00
11497;DHT22;5805;51.542;7.230;2022-09-09T10:18:59;24.30;89.00
11497;DHT22;5805;51.542;7.230;2022-09-09T10:21:39;24.50;89.00
11497;DHT22;5805;51.542;7.230;2022-09-09T10:24:22;24.70;86.30
11497;DHT22;5805;51.542;7.230;2022-09-09T10:26:55;24.90;85.50
11497;DHT22;5805;51.542;7.230;2022-09-09T10:29:32;25.10;84.20
11497;DHT22;5805;51.542;7.230;2022-09-09T10:32:10;25.20;80.50
11497;DHT22;5805;51.542;7.230;2022-09-09T10:34:53;25.20;78.00
11497;DHT22;5805;51.542;7.230;2022-09-09T10:37:30;25.20;78.50
11497;DHT22;5805;51.542;7.230;2022-09-09T10:40:04;25.20;76.90
11497;DHT22;5805;51.542;7.230;2022-09-09T10:42:39;25.20;73.60
11497;DHT22;5805;51.542;7.230;2022-09-09T10:45:17;25.00;74.00
11497;DHT22;5805;51.542;7.230;2022-09-09T10:47:57;24.80;74.40
11497;DHT22;5805;51.542;7.230;2022-09-09T10:50:40;24.70;75.90
11497;DHT22;5805;51.542;7.230;2022-09-09T10:53:13;24.60;77.10
11497;DHT22;5805;51.542;7.230;2022-09-09T10:55:42;24.50;76.70
11497;DHT22;5805;51.542;7.230;2022-09-09T10:58:12;24.40;76.10
11497;DHT22;5805;51.542;7.230;2022-09-09T11:00:42;24.40;77.10
11497;DHT22;5805;51.542;7.230;2022-09-09T11:03:17;24.50;75.10
11497;DHT22;5805;51.542;7.230;2022-09-09T11:05:46;24.70;74.10
11497;DHT22;5805;51.542;7.230;2022-09-09T11:08:17;24.80;73.30
11497;DHT22;5805;51.542;7.230;2022-09-09T11:10:46;25.00;73.40
11497;DHT22;5805;51.542;7.230;2022-09-09T11:13:18;25.10;73.10
11497;DHT22;5805;51.542;7.230;2022-09-09T11:15:48;25.10;72.10
11497;DHT22;5805;51.542;7.230;2022-09-09T11:18:19;25.20;71.70
11497;DHT22;5805;51.542;7.230;2022-09-09T11:20:48;25.20;70.90
11497;DHT22;5805;51.542;7.230;2022-09-09T11:23:18;25.20;70.40
11497;DHT22;5805;51.542;7.230;2022-09-09T11:25:51;25.20;70.00
11497;DHT22;5805;51.542;7.230;2022-09-09T11:28:32;25.00;69.10
11497;DHT22;5805;51.542;7.230;2022-09-09T11:31:21;25.00;69.60
11497;DHT22;5805;51.542;7.230;2022-09-09T11:34:07;24.80;70.10
11497;DHT22;5805;51.542;7.230;2022-09-09T11:37:00;24.80;71.90
11497;DHT22;5805;51.542;7.230;2022-09-09T11:39:51;24.90;71.70
11497;DHT22;5805;51.542;7.230;2022-09-09T11:42:21;25.10;71.00
11497;DHT22;5805;51.542;7.230;2022-09-09T11:44:47;25.10;71.10
11497;DHT22;5805;51.542;7.230;2022-09-09T11:47:20;25.00;70.80
11497;DHT22;5805;51.542;7.230;2022-09-09T11:49:48;25.00;70.20
11497;DHT22;5805;51.542;7.230;2022-09-09T11:52:21;25.10;71.70
11497;DHT22;5805;51.542;7.230;2022-09-09T11:54:49;25.20;69.60
11497;DHT22;5805;51.542;7.230;2022-09-09T11:57:25;25.00;69.60
11497;DHT22;5805;51.542;7.230;2022-09-09T11:59:53;24.90;69.70
11497;DHT22;5805;51.542;7.230;2022-09-09T12:02:23;24.70;70.10
11497;DHT22;5805;51.542;7.230;2022-09-09T12:04:55;24.60;71.40
11497;DHT22;5805;51.542;7.230;2022-09-09T12:07:31;24.80;72.50
11497;DHT22;5805;51.542;7.230;2022-09-09T12:09:59;25.00;72.00
11497;DHT22;5805;51.542;7.230;2022-09-09T12:12:30;25.00;70.80
11497;DHT22;5805;51.542;7.230;2022-09-09T12:15:24;24.90;71.10
11497;DHT22;5805;51.542;7.230;2022-09-09T12:17:51;24.80;72.00
11497;DHT22;5805;51.542;7.230;2022-09-09T12:20:20;24.70;73.20
11497;DHT22;5805;51.542;7.230;2022-09-09T12:23:00;24.70;74.40
11497;DHT22;5805;51.542;7.230;2022-09-09T12:25:34;24.70;75.80
11497;DHT22;5805;51.542;7.230;2022-09-09T12:28:09;24.50;79.70
11497;DHT22;5805;51.542;7.230;2022-09-09T12:30:42;24.30;85.30
11497;DHT22;5805;51.542;7.230;2022-09-09T12:33:12;24.10;87.80
11497;DHT22;5805;51.542;7.230;2022-09-09T12:35:42;23.90;88.90
11497;DHT22;5805;51.542;7.230;2022-09-09T12:38:13;23.90;89.60
11497;DHT22;5805;51.542;7.230;2022-09-09T12:40:40;24.00;88.70
11497;DHT22;5805;51.542;7.230;2022-09-09T12:43:20;24.20;88.30
11497;DHT22;5805;51.542;7.230;2022-09-09T12:45:46;24.40;86.40
11497;DHT22;5805;51.542;7.230;2022-09-09T12:48:12;24.50;85.20
11497;DHT22;5805;51.542;7.230;2022-09-09T12:50:45;24.50;84.40
11497;DHT22;5805;51.542;7.230;2022-09-09T12:53:20;24.40;83.80
11497;DHT22;5805;51.542;7.230;2022-09-09T12:55:50;24.30;84.30
11497;DHT22;5805;51.542;7.230;2022-09-09T12:58:18;24.30;84.20
11497;DHT22;5805;51.542;7.230;2022-09-09T13:00:49;24.10;85.20
11497;DHT22;5805;51.542;7.230;2022-09-09T13:03:18;23.90;87.60
11497;DHT22;5805;51.542;7.230;2022-09-09T13:05:45;24.00;90.50
11497;DHT22;5805;51.542;7.230;2022-09-09T13:08:13;24.10;91.60
11497;DHT22;5805;51.542;7.230;2022-09-09T13:10:42;24.30;90.30
11497;DHT22;5805;51.542;7.230;2022-09-09T13:13:14;24.20;90.00
11497;DHT22;5805;51.542;7.230;2022-09-09T13:15:49;24.00;89.80
11497;DHT22;5805;51.542;7.230;2022-09-09T13:18:22;23.80;90.20
11497;DHT22;5805;51.542;7.230;2022-09-09T13:20:50;23.70;91.30
11497;DHT22;5805;51.542;7.230;2022-09-09T13:23:18;23.60;91.70
11497;DHT22;5805;51.542;7.230;2022-09-09T13:25:54;23.40;92.30
11497;DHT22;5805;51.542;7.230;2022-09-09T13:28:21;23.40;92.60
11497;DHT22;5805;51.542;7.230;2022-09-09T13:30:56;23.40;92.10
11497;DHT22;5805;51.542;7.230;2022-09-09T13:33:22;23.40;92.30
11497;DHT22;5805;51.542;7.230;2022-09-09T13:35:51;23.40;92.60
11497;DHT22;5805;51.542;7.230;2022-09-09T13:38:19;23.40;93.00
11497;DHT22;5805;51.542;7.230;2022-09-09T13:40:56;23.40;93.50
11497;DHT22;5805;51.542;7.230;2022-09-09T13:43:23;23.30;95.40
11497;DHT22;5805;51.542;7.230;2022-09-09T13:45:56;23.30;95.60
11497;DHT22;5805;51.542;7.230;2022-09-09T13:48:22;23.30;95.80
11497;DHT22;5805;51.542;7.230;2022-09-09T13:50:56;23.30;96.70
11497;DHT22;5805;51.542;7.230;2022-09-09T13:53:21;23.10;99.90
11497;DHT22;5805;51.542;7.230;2022-09-09T13:55:48;22.70;99.90
11497;DHT22;5805;51.542;7.230;2022-09-09T13:58:15;22.30;99.90
11497;DHT22;5805;51.542;7.230;2022-09-09T14:00:41;22.10;99.90
11497;DHT22;5805;51.542;7.230;2022-09-09T14:03:07;21.90;99.90
11497;DHT22;5805;51.542;7.230;2022-09-09T14:05:33;21.70;99.90
11497;DHT22;5805;51.542;7.230;2022-09-09T14:08:02;21.40;99.90
11497;DHT22;5805;51.542;7.230;2022-09-09T14:10:28;21.10;99.90
11497;DHT22;5805;51.542;7.230;2022-09-09T14:12:54;21.00;99.90
11497;DHT22;5805;51.542;7.230;2022-09-09T14:15:19;20.80;99.90
11497;DHT22;5805;51.542;7.230;2022-09-09T14:17:45;20.80;99.90
11497;DHT22;5805;51.542;7.230;2022-09-09T14:20:11;20.70;99.90
11497;DHT22;5805;51.542;7.230;2022-09-09T14:22:37;20.80;99.90
11497;DHT22;5805;51.542;7.230;2022-09-09T14:25:05;20.90;99.90
11497;DHT22;5805;51.542;7.230;2022-09-09T14:27:31;21.20;99.90
11497;DHT22;5805;51.542;7.230;2022-09-09T14:29:57;21.50;99.90
11497;DHT22;5805;51.542;7.230;2022-09-09T14:32:22;21.80;99.90
11497;DHT22;5805;51.542;7.230;2022-09-09T14:34:48;22.10;99.90
11497;DHT22;5805;51.542;7.230;2022-09-09T14:37:14;22.30;99.90
11497;DHT22;5805;51.542;7.230;2022-09-09T14:39:39;22.20;99.90
11497;DHT22;5805;51.542;7.230;2022-09-09T14:42:07;22.20;99.90
11497;DHT22;5805;51.542;7.230;2022-09-09T14:44:32;22.10;99.90
11497;DHT22;5805;51.542;7.230;2022-09-09T14:46:58;22.00;99.90
11497;DHT22;5805;51.542;7.230;2022-09-09T14:49:24;21.90;99.90
11497;DHT22;5805;51.542;7.230;2022-09-09T14:51:49;21.90;99.90
11497;DHT22;5805;51.542;7.230;2022-09-09T14:54:15;22.00;99.90
11497;DHT22;5805;51.542;7.230;2022-09-09T14:56:41;22.00;99.90
11497;DHT22;5805;51.542;7.230;2022-09-09T14:59:08;22.00;99.90
11497;DHT22;5805;51.542;7.230;2022-09-09T15:01:33;22.10;99.90
11497;DHT22;5805;51.542;7.230;2022-09-09T15:04:02;22.30;99.90
11497;DHT22;5805;51.542;7.230;2022-09-09T15:06:31;22.50;99.90
11497;DHT22;5805;51.542;7.230;2022-09-09T15:08:57;22.60;99.90
11497;DHT22;5805;51.542;7.230;2022-09-09T15:11:23;22.60;99.90
11497;DHT22;5805;51.542;7.230;2022-09-09T15:13:51;22.70;99.90
11497;DHT22;5805;51.542;7.230;2022-09-09T15:16:20;22.60;99.90
11497;DHT22;5805;51.542;7.230;2022-09-09T15:18:50;22.40;99.90
11497;DHT22;5805;51.542;7.230;2022-09-09T15:21:17;22.40;99.90
11497;DHT22;5805;51.542;7.230;2022-09-09T15:23:43;22.30;99.90
11497;DHT22;5805;51.542;7.230;2022-09-09T15:26:10;22.20;99.90
11497;DHT22;5805;51.542;7.230;2022-09-09T15:28:37;22.10;99.90
11497;DHT22;5805;51.542;7.230;2022-09-09T15:31:05;21.80;99.90
11497;DHT22;5805;51.542;7.230;2022-09-09T15:33:33;21.50;99.90
11497;DHT22;5805;51.542;7.230;2022-09-09T15:35:59;21.30;99.90
11497;DHT22;5805;51.542;7.230;2022-09-09T15:38:25;21.20;99.90
11497;DHT22;5805;51.542;7.230;2022-09-09T15:40:53;21.10;99.90
11497;DHT22;5805;51.542;7.230;2022-09-09T15:43:19;21.10;99.90
11497;DHT22;5805;51.542;7.230;2022-09-09T15:45:46;21.10;99.90
11497;DHT22;5805;51.542;7.230;2022-09-09T15:48:14;21.10;99.90
11497;DHT22;5805;51.542;7.230;2022-09-09T15:50:41;21.00;99.90
11497;DHT22;5805;51.542;7.230;2022-09-09T15:53:07;21.00;99.90
11497;DHT22;5805;51.542;7.230;2022-09-09T15:55:32;20.90;99.90
11497;DHT22;5805;51.542;7.230;2022-09-09T15:57:58;20.90;99.90